createdAt,value
2022-12-26T00:00:28.768Z,98585.13
2022-12-26T00:02:55.579Z,98572.63
2022-12-26T00:05:22.346Z,98572.97
2022-12-26T00:07:49.263Z,98567.38
2022-12-26T00:10:15.975Z,98569.88
2022-12-26T00:12:42.790Z,98570.84
2022-12-26T00:15:09.443Z,98579.59
2022-12-26T00:17:36.154Z,98583.50
2022-12-26T00:20:03.791Z,98583.19
2022-12-26T00:22:30.471Z,98574.44
2022-12-26T00:24:57.374Z,98579.16
2022-12-26T00:27:24.143Z,98583.13
2022-12-26T00:29:50.848Z,98574.63
2022-12-26T00:32:17.721Z,98566.38
2022-12-26T00:34:44.388Z,98566.09
2022-12-26T00:37:11.130Z,98560.19
2022-12-26T00:39:37.831Z,98561.03
2022-12-26T00:42:04.648Z,98557.84
2022-12-26T00:44:31.380Z,98561.75
2022-12-26T00:46:58.184Z,98564.09
2022-12-26T00:49:25.141Z,98563.09
2022-12-26T00:51:51.859Z,98563.03
2022-12-26T00:54:18.588Z,98569.19
2022-12-26T00:56:45.294Z,98560.94
2022-12-26T00:59:12.759Z,98558.13
2022-12-26T01:01:39.721Z,98556.34
2022-12-26T01:04:06.723Z,98550.94
2022-12-26T01:06:33.757Z,98552.09
2022-12-26T01:09:00.474Z,98549.44
2022-12-26T01:11:42.484Z,98548.66
2022-12-26T01:14:17.381Z,98554.59
2022-12-26T01:16:45.955Z,98559.47
2022-12-26T01:19:13.915Z,98565.75
2022-12-26T01:21:41.340Z,98577.06
2022-12-26T01:24:08.196Z,98553.94
2022-12-26T01:26:34.898Z,98560.75
2022-12-26T01:29:01.765Z,98556.06
2022-12-26T01:31:28.449Z,98553.56
2022-12-26T01:33:55.321Z,98553.56
2022-12-26T01:36:22.038Z,98551.66
2022-12-26T01:38:48.715Z,98550.63
2022-12-26T01:41:20.401Z,98567.09
2022-12-26T01:43:59.280Z,98577.59
2022-12-26T01:46:38.811Z,98576.63
2022-12-26T01:49:36.068Z,98572.97
2022-12-26T01:52:33.607Z,98579.88
2022-12-26T01:55:00.944Z,98586.78
2022-12-26T01:57:32.309Z,98582.06
2022-12-26T02:00:01.846Z,98581.53
2022-12-26T02:02:30.190Z,98578.13
2022-12-26T02:05:16.778Z,98568.44
2022-12-26T02:07:45.847Z,98563.47
2022-12-26T02:10:20.878Z,98568.44
2022-12-26T02:12:48.768Z,98578.44
2022-12-26T02:15:17.919Z,98588.13
2022-12-26T02:17:45.050Z,98586.88
2022-12-26T02:20:22.174Z,98588.19
2022-12-26T02:23:29.732Z,98585.84
2022-12-26T02:26:22.867Z,98574.69
2022-12-26T02:29:26.554Z,98575.84
2022-12-26T02:32:07.710Z,98566.81
2022-12-26T02:34:53.930Z,98574.63
2022-12-26T02:37:32.417Z,98579.91
2022-12-26T02:40:36.445Z,98590.22
2022-12-26T02:43:23.396Z,98590.72
2022-12-26T02:46:51.824Z,98586.09
2022-12-26T02:50:00.780Z,98574.63
2022-12-26T02:52:52.735Z,98575.09
2022-12-26T02:55:41.119Z,98576.38
2022-12-26T02:58:42.678Z,98572.47
2022-12-26T03:01:36.463Z,98560.41
2022-12-26T03:04:23.272Z,98552.53
2022-12-26T03:07:13.523Z,98565.25
2022-12-26T03:10:00.821Z,98572.16
2022-12-26T03:13:03.399Z,98578.03
2022-12-26T03:15:55.172Z,98586.59
2022-12-26T03:18:58.916Z,98595.03
2022-12-26T03:21:10.648Z,98584.81
2022-12-26T03:23:39.887Z,98584.66
2022-12-26T03:26:28.302Z,98596.69
2022-12-26T03:29:18.801Z,98595.19
2022-12-26T03:31:46.046Z,98605.41
2022-12-26T03:34:18.759Z,98588.00
2022-12-26T03:37:24.635Z,98591.97
2022-12-26T03:40:45.349Z,98589.63
2022-12-26T03:44:02.190Z,98584.38
2022-12-26T03:47:05.481Z,98587.66
2022-12-26T03:49:54.545Z,98587.66
2022-12-26T03:52:45.985Z,98593.47
2022-12-26T03:55:36.724Z,98569.59
2022-12-26T03:58:38.315Z,98570.56
2022-12-26T04:01:27.938Z,98565.63
2022-12-26T04:04:15.467Z,98569.25
2022-12-26T04:07:07.864Z,98575.63
2022-12-26T04:09:58.528Z,98577.63
2022-12-26T04:12:44.700Z,98578.47
2022-12-26T04:15:56.468Z,98579.13
2022-12-26T04:18:47.512Z,98582.06
2022-12-26T04:21:51.266Z,98572.38
2022-12-26T04:24:42.156Z,98574.50
2022-12-26T04:27:31.471Z,98580.47
2022-12-26T04:30:16.701Z,98591.97
2022-12-26T04:33:04.734Z,98608.88
2022-12-26T04:35:53.712Z,98604.91
2022-12-26T04:38:43.016Z,98614.31
2022-12-26T04:41:29.746Z,98606.06
2022-12-26T04:44:07.134Z,98598.13
2022-12-26T04:46:36.042Z,98591.63
2022-12-26T04:49:29.592Z,98583.03
2022-12-26T04:51:57.469Z,98570.19
2022-12-26T04:54:25.026Z,98577.75
2022-12-26T04:56:51.804Z,98561.19
2022-12-26T04:59:19.169Z,98566.81
2022-12-26T05:02:04.331Z,98551.47
2022-12-26T05:04:50.003Z,98547.00
2022-12-26T05:07:41.050Z,98549.97
2022-12-26T05:10:13.790Z,98566.56
2022-12-26T05:12:40.856Z,98561.94
2022-12-26T05:15:08.391Z,98570.50
2022-12-26T05:17:53.779Z,98578.91
2022-12-26T05:20:49.912Z,98579.06
2022-12-26T05:23:44.955Z,98577.72
2022-12-26T05:26:34.934Z,98576.06
2022-12-26T05:29:04.029Z,98577.03
2022-12-26T05:31:35.468Z,98567.16
2022-12-26T05:34:07.249Z,98573.53
2022-12-26T05:36:38.107Z,98593.88
2022-12-26T05:39:06.046Z,98595.03
2022-12-26T05:41:32.817Z,98600.69
2022-12-26T05:43:59.561Z,98617.16
2022-12-26T05:46:26.672Z,98616.16
2022-12-26T05:48:53.496Z,98607.84
2022-12-26T05:51:20.727Z,98605.34
2022-12-26T05:53:48.682Z,98591.84
2022-12-26T05:56:17.151Z,98594.59
2022-12-26T05:58:44.392Z,98594.94
2022-12-26T06:01:19.624Z,98594.25
2022-12-26T06:03:48.919Z,98597.19
2022-12-26T06:06:16.026Z,98600.69
2022-12-26T06:08:42.985Z,98616.13
2022-12-26T06:11:12.056Z,98615.50
2022-12-26T06:13:39.900Z,98614.22
2022-12-26T06:16:08.439Z,98609.56
2022-12-26T06:18:35.629Z,98591.78
2022-12-26T06:21:11.010Z,98590.56
2022-12-26T06:23:38.354Z,98585.72
2022-12-26T06:26:05.668Z,98595.44
2022-12-26T06:28:33.772Z,98574.34
2022-12-26T06:31:05.465Z,98593.78
2022-12-26T06:33:32.444Z,98596.06
2022-12-26T06:36:11.296Z,98592.16
2022-12-26T06:38:38.147Z,98615.47
2022-12-26T06:41:06.294Z,98620.63
2022-12-26T06:43:33.263Z,98629.66
2022-12-26T06:46:01.242Z,98628.72
2022-12-26T06:48:28.655Z,98631.53
2022-12-26T06:50:56.028Z,98615.59
2022-12-26T06:53:26.129Z,98609.88
2022-12-26T06:55:53.085Z,98612.81
2022-12-26T06:58:19.867Z,98621.66
2022-12-26T07:00:46.637Z,98630.91
2022-12-26T07:03:13.654Z,98633.69
2022-12-26T07:05:40.468Z,98625.75
2022-12-26T07:08:07.425Z,98639.47
2022-12-26T07:10:37.554Z,98649.69
2022-12-26T07:13:04.395Z,98655.97
2022-12-26T07:15:31.577Z,98661.91
2022-12-26T07:17:58.372Z,98667.03
2022-12-26T07:20:25.244Z,98660.81
2022-12-26T07:22:52.089Z,98660.59
2022-12-26T07:25:18.710Z,98653.53
2022-12-26T07:27:45.466Z,98664.41
2022-12-26T07:30:12.483Z,98660.16
2022-12-26T07:32:39.295Z,98652.56
2022-12-26T07:35:06.388Z,98649.16
2022-12-26T07:37:33.144Z,98652.63
2022-12-26T07:39:59.872Z,98657.88
2022-12-26T07:42:26.718Z,98670.66
2022-12-26T07:44:53.540Z,98669.97
2022-12-26T07:47:20.343Z,98655.53
2022-12-26T07:49:47.073Z,98650.06
2022-12-26T07:52:13.827Z,98657.69
2022-12-26T07:54:40.665Z,98653.91
2022-12-26T07:57:46.031Z,98653.53
2022-12-26T07:59:54.592Z,98649.72
2022-12-26T08:02:21.655Z,98645.78
2022-12-26T08:04:48.753Z,98647.91
2022-12-26T08:07:15.542Z,98652.66
2022-12-26T08:09:44.959Z,98653.47
2022-12-26T08:12:13.183Z,98662.97
2022-12-26T08:14:40.895Z,98656.34
2022-12-26T08:17:08.309Z,98658.59
2022-12-26T08:19:35.114Z,98655.44
2022-12-26T08:22:01.962Z,98658.06
2022-12-26T08:24:28.710Z,98654.09
2022-12-26T08:26:55.454Z,98656.88
2022-12-26T08:29:22.404Z,98661.63
2022-12-26T08:31:49.143Z,98671.16
2022-12-26T08:34:15.895Z,98668.50
2022-12-26T08:36:42.636Z,98675.97
2022-12-26T08:39:09.637Z,98675.44
2022-12-26T08:41:36.350Z,98676.56
2022-12-26T08:44:26.324Z,98684.00
2022-12-26T08:46:49.890Z,98682.19
2022-12-26T08:49:16.777Z,98692.91
2022-12-26T08:51:43.431Z,98704.63
2022-12-26T08:54:10.297Z,98700.03
2022-12-26T08:56:37.095Z,98698.22
2022-12-26T08:59:03.834Z,98701.22
2022-12-26T09:01:31.616Z,98696.25
2022-12-26T09:04:02.303Z,98692.34
2022-12-26T09:06:30.012Z,98684.75
2022-12-26T09:08:56.722Z,98685.09
2022-12-26T09:11:27.824Z,98764.94
2022-12-26T09:13:56.406Z,98757.88
2022-12-26T09:16:25.584Z,98780.94
2022-12-26T09:18:59.006Z,98763.06
2022-12-26T09:21:26.152Z,98771.50
2022-12-26T09:24:00.348Z,98769.00
2022-12-26T09:26:28.579Z,98775.38
2022-12-26T09:28:55.995Z,98785.59
2022-12-26T09:31:29.025Z,98778.16
2022-12-26T09:33:55.856Z,98782.81
2022-12-26T09:36:25.777Z,98777.56
2022-12-26T09:38:54.912Z,98782.81
2022-12-26T09:41:57.019Z,98782.50
2022-12-26T09:45:17.716Z,98779.41
2022-12-26T09:48:00.861Z,98768.31
2022-12-26T09:50:30.517Z,98772.03
2022-12-26T09:53:18.610Z,98779.47
2022-12-26T09:55:52.561Z,98773.09
2022-12-26T09:58:31.817Z,98781.94
2022-12-26T10:01:27.191Z,98770.75
2022-12-26T10:03:58.304Z,98774.25
2022-12-26T10:06:31.475Z,98776.25
2022-12-26T10:09:09.349Z,98829.53
2022-12-26T10:12:02.332Z,98831.56
2022-12-26T10:14:51.803Z,98831.75
2022-12-26T10:17:28.459Z,98805.28
2022-12-26T10:20:04.425Z,98808.59
2022-12-26T10:23:02.558Z,98799.06
2022-12-26T10:25:49.055Z,98809.97
2022-12-26T10:28:39.316Z,98813.56
2022-12-26T10:31:11.715Z,98817.69
2022-12-26T10:33:53.241Z,98806.09
2022-12-26T10:36:42.072Z,98810.81
2022-12-26T10:39:18.451Z,98797.25
2022-12-26T10:41:51.599Z,98795.91
2022-12-26T10:44:21.353Z,98809.03
2022-12-26T10:47:14.534Z,98808.06
2022-12-26T10:49:43.428Z,98800.44
2022-12-26T10:52:10.768Z,98786.75
2022-12-26T10:54:38.478Z,98778.88
2022-12-26T10:57:06.233Z,98787.31
2022-12-26T10:59:40.735Z,98771.03
2022-12-26T11:02:33.890Z,98784.25
2022-12-26T11:05:22.086Z,98778.56
2022-12-26T11:07:54.104Z,98792.59
2022-12-26T11:10:24.683Z,98788.16
2022-12-26T11:13:02.049Z,98790.78
2022-12-26T11:15:35.246Z,98786.38
2022-12-26T11:18:20.858Z,98787.19
2022-12-26T11:20:48.037Z,98777.25
2022-12-26T11:23:31.813Z,98772.66
2022-12-26T11:26:00.944Z,98772.81
2022-12-26T11:28:36.325Z,98778.97
2022-12-26T11:31:07.870Z,98769.69
2022-12-26T11:33:41.573Z,98775.34
2022-12-26T11:36:12.420Z,98769.09
2022-12-26T11:39:05.099Z,98772.72
2022-12-26T11:41:40.296Z,98789.25
2022-12-26T11:44:11.588Z,98777.50
2022-12-26T11:47:13.255Z,98778.34
2022-12-26T11:49:46.354Z,98786.47
2022-12-26T11:52:38.197Z,98790.22
2022-12-26T11:55:51.176Z,98777.75
2022-12-26T11:58:20.691Z,98780.44
2022-12-26T12:01:10.815Z,98780.75
2022-12-26T12:03:48.595Z,98773.94
2022-12-26T12:06:44.259Z,98773.13
2022-12-26T12:09:46.601Z,98767.88
2022-12-26T12:12:31.483Z,98763.03
2022-12-26T12:15:16.648Z,98766.38
2022-12-26T12:17:56.524Z,98771.03
2022-12-26T12:20:51.863Z,98760.19
2022-12-26T12:24:00.530Z,98758.94
2022-12-26T12:26:47.386Z,98760.28
2022-12-26T12:29:41.999Z,98751.16
2022-12-26T12:32:23.314Z,98755.28
2022-12-26T12:35:15.436Z,98756.09
2022-12-26T12:37:54.673Z,98750.53
2022-12-26T12:40:38.339Z,98744.97
2022-12-26T12:43:37.512Z,98743.03
2022-12-26T12:46:19.693Z,98738.19
2022-12-26T12:49:18.753Z,98737.97
2022-12-26T12:52:13.293Z,98739.84
2022-12-26T12:55:03.995Z,98734.06
2022-12-26T12:57:52.489Z,98750.28
2022-12-26T13:00:24.659Z,98742.56
2022-12-26T13:03:10.900Z,98741.72
2022-12-26T13:06:09.981Z,98734.13
2022-12-26T13:08:45.495Z,98724.28
2022-12-26T13:11:26.198Z,98732.16
2022-12-26T13:13:57.423Z,98715.53
2022-12-26T13:16:34.063Z,98709.13
2022-12-26T13:19:04.397Z,98707.06
2022-12-26T13:21:35.309Z,98714.94
2022-12-26T13:24:25.292Z,98705.56
2022-12-26T13:26:58.358Z,98701.53
2022-12-26T13:29:46.767Z,98715.00
2022-12-26T13:32:18.088Z,98707.75
2022-12-26T13:34:46.229Z,98712.03
2022-12-26T13:37:55.891Z,98713.03
2022-12-26T13:40:26.808Z,98714.00
2022-12-26T13:43:17.295Z,98713.69
2022-12-26T13:45:50.276Z,98716.78
2022-12-26T13:48:32.727Z,98722.50
2022-12-26T13:51:01.248Z,98716.13
2022-12-26T13:53:33.475Z,98718.00
2022-12-26T13:56:45.677Z,98714.63
2022-12-26T13:59:54.008Z,98719.88
2022-12-26T14:10:11.202Z,98726.09
2022-12-26T14:12:50.315Z,98725.81
2022-12-26T14:15:49.061Z,98732.56
2022-12-26T14:18:56.997Z,98731.59
2022-12-26T14:21:54.537Z,98728.16
2022-12-26T14:24:37.635Z,98726.94
2022-12-26T14:27:34.063Z,98727.94
2022-12-26T14:30:23.353Z,98724.78
2022-12-26T14:33:11.849Z,98729.44
2022-12-26T14:36:22.046Z,98730.25
2022-12-26T14:39:30.114Z,98725.31
2022-12-26T14:42:27.727Z,98720.66
2022-12-26T14:44:56.908Z,98718.13
2022-12-26T14:47:48.244Z,98726.66
2022-12-26T14:50:42.671Z,98723.50
2022-12-26T14:53:30.564Z,98724.78
2022-12-26T14:56:10.696Z,98733.56
2022-12-26T14:59:18.835Z,98719.66
2022-12-26T15:01:48.939Z,98731.63
2022-12-26T15:04:43.066Z,98738.91
2022-12-26T15:08:02.693Z,98728.53
2022-12-26T15:11:24.963Z,98735.75
2022-12-26T15:14:43.715Z,98748.03
2022-12-26T15:17:34.838Z,98736.50
2022-12-26T15:20:44.866Z,98748.66
2022-12-26T15:23:33.653Z,98752.03
2022-12-26T15:26:39.172Z,98760.13
2022-12-26T15:29:40.663Z,98756.25
2022-12-26T15:32:39.770Z,98743.00
2022-12-26T15:35:32.296Z,98734.69
2022-12-26T15:38:39.222Z,98750.69
2022-12-26T15:41:24.128Z,98751.28
2022-12-26T15:44:21.134Z,98749.63
2022-12-26T15:47:02.969Z,98736.78
2022-12-26T16:00:00.900Z,98733.78
2022-12-26T16:02:32.348Z,98727.63
2022-12-26T16:05:28.381Z,98738.66
2022-12-26T16:08:09.997Z,98730.31
2022-12-26T16:10:37.772Z,98719.56
2022-12-26T16:13:24.882Z,98726.03
2022-12-26T16:15:56.668Z,98729.41
2022-12-26T16:18:27.837Z,98741.16
2022-12-26T16:21:16.397Z,98750.44
2022-12-26T16:23:44.435Z,98743.16
2022-12-26T16:26:19.216Z,98750.50
2022-12-26T16:28:46.119Z,98751.41
2022-12-26T16:31:20.197Z,98750.75
2022-12-26T16:33:47.588Z,98762.88
2022-12-26T16:36:28.329Z,98773.09
2022-12-26T16:38:55.655Z,98778.09
2022-12-26T16:41:28.021Z,98794.91
2022-12-26T16:43:56.575Z,98807.09
2022-12-26T16:46:26.671Z,98826.19
2022-12-26T16:48:58.983Z,98844.81
2022-12-26T16:51:52.929Z,98876.19
2022-12-26T16:54:37.855Z,98878.88
2022-12-26T16:57:16.784Z,98887.28
2022-12-26T16:59:51.162Z,98871.81
2022-12-26T17:02:22.019Z,98874.03
2022-12-26T17:05:04.707Z,98869.88
2022-12-26T17:07:31.974Z,98875.66
2022-12-26T17:10:00.365Z,98868.50
2022-12-26T17:12:38.120Z,98856.91
2022-12-26T17:15:06.154Z,98865.44
2022-12-26T17:17:38.225Z,98865.75
2022-12-26T17:20:43.796Z,98856.34
2022-12-26T17:23:33.531Z,98844.06
2022-12-26T17:26:26.174Z,98866.00
2022-12-26T17:28:53.199Z,98863.38
2022-12-26T17:31:28.575Z,98867.38
2022-12-26T17:33:59.193Z,98880.91
2022-12-26T17:39:26.296Z,98900.16
2022-12-26T17:41:56.052Z,98903.47
2022-12-26T17:44:45.525Z,98904.81
2022-12-26T17:47:22.732Z,98904.28
2022-12-26T17:49:50.915Z,98910.63
2022-12-26T17:52:20.615Z,98905.81
2022-12-26T17:54:49.364Z,98912.44
2022-12-26T17:57:22.487Z,98906.25
2022-12-26T17:59:50.035Z,98909.53
2022-12-26T18:02:16.788Z,98891.06
2022-12-26T18:04:44.175Z,98884.44
2022-12-26T18:07:23.208Z,98894.66
2022-12-26T18:09:54.020Z,98907.03
2022-12-26T18:12:20.703Z,98927.59
2022-12-26T18:14:48.496Z,98932.56
2022-12-26T18:17:18.423Z,98924.88
2022-12-26T18:19:46.388Z,98934.38
2022-12-26T18:22:15.428Z,98934.50
2022-12-26T18:24:42.520Z,98940.56
2022-12-26T18:27:27.798Z,98940.00
2022-12-26T18:29:54.589Z,98938.22
2022-12-26T18:32:29.836Z,98941.78
2022-12-26T18:34:57.182Z,98948.69
2022-12-26T18:37:26.472Z,98953.25
2022-12-26T18:39:53.773Z,98956.09
2022-12-26T18:42:20.549Z,98961.88
2022-12-26T18:44:47.633Z,98958.03
2022-12-26T18:47:16.632Z,98957.84
2022-12-26T18:49:43.834Z,98962.97
2022-12-26T18:52:11.013Z,98965.16
2022-12-26T18:54:44.581Z,98959.91
2022-12-26T18:57:18.568Z,98955.25
2022-12-26T18:59:46.396Z,98960.59
2022-12-26T19:02:18.792Z,98964.22
2022-12-26T19:04:48.810Z,98961.56
2022-12-26T19:07:17.626Z,98967.16
2022-12-26T19:09:45.760Z,98968.75
2022-12-26T19:12:13.147Z,98983.22
2022-12-26T19:14:40.461Z,98986.78
2022-12-26T19:17:07.147Z,98995.13
2022-12-26T19:19:37.333Z,99003.75
2022-12-26T19:22:04.021Z,99003.69
2022-12-26T19:24:30.630Z,99020.00
2022-12-26T19:26:57.330Z,99033.09
2022-12-26T19:29:24.304Z,99020.72
2022-12-26T19:31:51.057Z,99029.34
2022-12-26T19:34:17.967Z,99025.09
2022-12-26T19:36:46.758Z,99027.72
2022-12-26T19:39:13.524Z,99041.75
2022-12-26T19:41:40.493Z,99045.56
2022-12-26T19:44:07.185Z,99038.16
2022-12-26T19:46:34.067Z,99039.38
2022-12-26T19:49:01.423Z,99044.00
2022-12-26T19:51:28.384Z,99048.06
2022-12-26T19:53:59.860Z,99057.00
2022-12-26T19:56:27.567Z,99054.50
2022-12-26T19:58:56.854Z,99058.09
2022-12-26T20:01:26.415Z,99061.28
2022-12-26T20:03:57.927Z,99060.44
2022-12-26T20:06:26.633Z,99067.81
2022-12-26T20:08:57.037Z,99071.38
2022-12-26T20:11:27.850Z,99078.53
2022-12-26T20:13:54.729Z,99096.81
2022-12-26T20:17:03.281Z,99106.41
2022-12-26T20:19:10.909Z,99109.38
2022-12-26T20:21:38.722Z,99111.88
2022-12-26T20:24:06.168Z,99120.66
2022-12-26T20:26:33.476Z,99122.19
2022-12-26T20:29:02.095Z,99131.69
2022-12-26T20:31:29.676Z,99133.81
2022-12-26T20:34:00.960Z,99145.97
2022-12-26T20:36:29.667Z,99159.72
2022-12-26T20:38:58.717Z,99160.19
2022-12-26T20:41:26.452Z,99168.03
2022-12-26T20:43:53.171Z,99175.38
2022-12-26T20:46:22.563Z,99173.34
2022-12-26T20:48:49.945Z,99175.13
2022-12-26T20:51:20.096Z,99171.81
2022-12-26T20:53:46.977Z,99170.34
2022-12-26T20:56:13.828Z,99180.81
2022-12-26T20:58:40.697Z,99181.66
2022-12-26T21:01:11.204Z,99186.84
2022-12-26T21:03:38.990Z,99195.41
2022-12-26T21:06:14.235Z,99199.06
2022-12-26T21:08:42.583Z,99202.41
2022-12-26T21:11:15.452Z,99207.75
2022-12-26T21:13:43.144Z,99219.38
2022-12-26T21:16:25.154Z,99219.97
2022-12-26T21:18:52.068Z,99226.59
2022-12-26T21:21:27.311Z,99227.31
2022-12-26T21:23:59.780Z,99232.78
2022-12-26T21:26:27.141Z,99236.94
2022-12-26T21:28:58.601Z,99245.34
2022-12-26T21:31:25.886Z,99247.56
2022-12-26T21:33:56.329Z,99262.38
2022-12-26T21:36:24.083Z,99269.16
2022-12-26T21:38:51.195Z,99271.28
2022-12-26T21:41:17.830Z,99284.56
2022-12-26T21:43:44.613Z,99276.66
2022-12-26T21:46:14.246Z,99280.38
2022-12-26T21:48:50.406Z,99295.13
2022-12-26T21:51:18.673Z,99304.06
2022-12-26T21:53:46.291Z,99319.91
2022-12-26T21:56:14.802Z,99320.03
2022-12-26T21:59:01.822Z,99332.44
2022-12-26T22:01:29.487Z,99342.06
2022-12-26T22:04:14.995Z,99349.34
2022-12-26T22:06:42.956Z,99365.63
2022-12-26T22:09:18.676Z,99371.84
2022-12-26T22:12:04.241Z,99381.03
2022-12-26T22:14:31.422Z,99390.16
2022-12-26T22:16:58.100Z,99397.38
2022-12-26T22:19:25.291Z,99407.97
2022-12-26T22:21:52.960Z,99418.25
2022-12-26T22:24:21.635Z,99416.88
2022-12-26T22:26:48.895Z,99418.03
2022-12-26T22:29:15.865Z,99420.31
2022-12-26T22:31:42.567Z,99426.88
2022-12-26T22:34:14.450Z,99429.72
2022-12-26T22:36:41.851Z,99437.84
2022-12-26T22:39:12.200Z,99440.50
2022-12-26T22:41:39.257Z,99449.31
2022-12-26T22:44:06.645Z,99444.22
2022-12-26T22:46:33.490Z,99455.63
2022-12-26T22:49:00.290Z,99457.31
2022-12-26T22:51:27.762Z,99463.69
2022-12-26T22:53:59.975Z,99473.31
2022-12-26T22:56:27.457Z,99478.13
2022-12-26T22:58:55.900Z,99485.94
2022-12-26T23:01:23.817Z,99495.50
2022-12-26T23:03:50.551Z,99504.16
2022-12-26T23:06:28.676Z,99504.53
2022-12-26T23:08:57.518Z,99511.16
2022-12-26T23:11:32.157Z,99526.13
2022-12-26T23:14:01.887Z,99524.38
2022-12-26T23:16:34.614Z,99528.09
2022-12-26T23:19:27.067Z,99526.72
2022-12-26T23:21:54.094Z,99526.03
2022-12-26T23:24:24.065Z,99534.38
2022-12-26T23:27:17.607Z,99537.84
2022-12-26T23:30:03.145Z,99531.16
2022-12-26T23:32:29.852Z,99530.38
2022-12-26T23:34:56.490Z,99539.44
2022-12-26T23:37:23.838Z,99537.41
2022-12-26T23:39:50.466Z,99542.16
2022-12-26T23:42:17.230Z,99543.84
2022-12-26T23:44:44.113Z,99541.75
2022-12-26T23:47:11.284Z,99541.63
2022-12-26T23:49:37.918Z,99543.91
2022-12-26T23:52:04.981Z,99552.59
2022-12-26T23:54:31.789Z,99554.03
2022-12-26T23:56:58.524Z,99554.22
2022-12-26T23:59:25.251Z,99561.00
